Westfield, Wisconsin
Current Conditions -  °F | °C
As of 11:56 AM on Thursday 30 Oct 2014 (Local Time) from KY50 Reporting Station
Overcast Overcast  
Wind Chill: 44°   Ceiling: 8000
Heat Index: 47°   Visibility: 10mi
Dew Point: 35°   Wind: 6mph
Humidity: 63%   Direction: 270°W
Pressure: 30.08"   Gusts: NA
Location:  43.88°N, 89.49°W
Report Text: KY50 301656Z AUTO 27005KT 10SM FEW042 OVC080 08/02 A3008 RMK AO2 TSNO T00830016 SLP191
Loading
Personal Weather Stations






























Interactive Weather Map
Tropical Storm Tracking
New forecast layout! Learn more

10-Day Weather Forecast

Advertisements
Track Severe Weather on mobile